Time;durP1;ratioP1;P1;durP2;ratioP2;P2;SDS_P1;SDS_P2;PMS_P1;PMS_P2;Temp;Humidity;BMP_temperature;BMP_pressure;BME280_temperature;BME280_humidity;BME280_pressure;Samples;Min_cycle;Max_cycle;Signal;HPM_P1;HPM_P2
2024/03/20 00:01:36;;;;;;;10.02;6.72;;;10.00;99.90;;;;;;7374106;19;20604;-64
2024/03/20 00:04:04;;;;;;;14.30;7.68;;;10.00;99.90;;;;;;7376277;19;20027;-65
2024/03/20 00:06:33;;;;;;;12.73;7.82;;;9.90;99.90;;;;;;7368081;19;20667;-66
2024/03/20 00:09:01;;;;;;;14.52;7.30;;;9.90;99.90;;;;;;7368820;19;20022;-65
2024/03/20 00:11:27;;;;;;;12.57;7.38;;;9.80;99.90;;;;;;7368740;19;20044;-65
2024/03/20 00:13:54;;;;;;;12.50;8.07;;;9.70;99.90;;;;;;7375365;19;20038;-65
2024/03/20 00:16:20;;;;;;;10.88;7.97;;;9.70;99.90;;;;;;7364314;19;20019;-65
2024/03/20 00:18:47;;;;;;;12.90;8.52;;;9.70;99.90;;;;;;7363064;19;20041;-65
2024/03/20 00:21:13;;;;;;;13.07;9.35;;;9.70;99.90;;;;;;7363448;19;21124;-64
2024/03/20 00:23:39;;;;;;;15.25;9.07;;;9.60;99.90;;;;;;7366408;19;20014;-64
2024/03/20 00:26:06;;;;;;;13.30;9.10;;;9.60;99.90;;;;;;7367029;19;20759;-65
2024/03/20 00:28:32;;;;;;;12.82;9.63;;;9.60;99.90;;;;;;7368764;19;20022;-65
2024/03/20 00:30:58;;;;;;;13.40;9.98;;;9.60;99.90;;;;;;7364700;19;20010;-66
2024/03/20 00:33:27;;;;;;;15.30;10.10;;;9.60;99.90;;;;;;7362009;19;20904;-66
2024/03/20 00:35:53;;;;;;;14.95;10.20;;;9.70;99.90;;;;;;7352617;19;20114;-65
2024/03/20 00:38:19;;;;;;;14.60;9.65;;;9.70;99.90;;;;;;7364935;19;20025;-68
2024/03/20 00:40:47;;;;;;;13.23;9.13;;;9.70;99.90;;;;;;7369082;19;20879;-65
2024/03/20 00:43:13;;;;;;;13.85;9.85;;;9.70;99.90;;;;;;7371561;19;20489;-65
2024/03/20 00:45:40;;;;;;;15.15;9.75;;;9.70;99.90;;;;;;7375418;19;20019;-66
2024/03/20 00:48:07;;;;;;;12.82;9.10;;;9.70;99.90;;;;;;7372090;19;20021;-67
2024/03/20 00:50:34;;;;;;;14.32;9.27;;;9.70;99.90;;;;;;7368804;19;20029;-66
2024/03/20 00:53:01;;;;;;;15.88;10.13;;;9.80;99.90;;;;;;7370740;19;20033;-66
2024/03/20 00:55:27;;;;;;;14.73;10.35;;;9.80;99.90;;;;;;7366325;19;20022;-66
2024/03/20 00:57:53;;;;;;;13.23;9.60;;;9.70;99.90;;;;;;7363310;19;20481;-66
2024/03/20 01:00:19;;;;;;;14.75;9.50;;;9.70;99.90;;;;;;7369258;19;20066;-66
2024/03/20 01:02:46;;;;;;;14.27;9.63;;;9.70;99.90;;;;;;7368267;19;20075;-65
2024/03/20 01:05:13;;;;;;;14.88;10.48;;;9.70;99.90;;;;;;7370667;19;20022;-67
2024/03/20 01:07:42;;;;;;;14.52;9.50;;;9.70;99.90;;;;;;7371607;19;20102;-65
2024/03/20 01:10:08;;;;;;;15.68;10.52;;;9.70;99.90;;;;;;7371764;19;20026;-64
2024/03/20 01:12:35;;;;;;;16.58;10.50;;;9.70;99.90;;;;;;7378237;19;20491;-65
2024/03/20 01:15:03;;;;;;;13.30;9.57;;;9.70;99.90;;;;;;7372868;19;20018;-66
2024/03/20 01:17:33;;;;;;;13.80;9.50;;;9.70;99.90;;;;;;7360001;19;20042;-66
2024/03/20 01:20:03;;;;;;;13.88;9.88;;;9.70;99.90;;;;;;7362755;19;20074;-66
2024/03/20 01:22:37;;;;;;;18.13;11.80;;;9.70;99.90;;;;;;7371324;19;20041;-65
2024/03/20 01:25:07;;;;;;;14.98;10.10;;;9.70;99.90;;;;;;7366668;19;20450;-64
2024/03/20 01:27:34;;;;;;;15.98;10.05;;;9.80;99.90;;;;;;7374222;19;20489;-67
2024/03/20 01:30:01;;;;;;;13.18;9.80;;;9.70;99.90;;;;;;7366971;19;20022;-66
2024/03/20 01:32:27;;;;;;;13.57;9.73;;;9.70;99.90;;;;;;7375558;19;20042;-65
2024/03/20 01:34:54;;;;;;;17.20;9.90;;;9.70;99.90;;;;;;7372068;19;20029;-66
2024/03/20 01:37:20;;;;;;;16.13;10.02;;;9.70;99.90;;;;;;7370344;19;20592;-67
2024/03/20 01:39:46;;;;;;;12.55;10.38;;;9.70;99.90;;;;;;7368642;19;20422;-67
2024/03/20 01:42:12;;;;;;;15.15;10.65;;;9.70;99.90;;;;;;7381977;19;20023;-64
2024/03/20 01:44:38;;;;;;;13.20;10.20;;;9.70;99.90;;;;;;7375368;19;20514;-65
2024/03/20 01:47:05;;;;;;;18.05;11.55;;;9.70;99.90;;;;;;7375351;19;20015;-64
2024/03/20 01:49:32;;;;;;;15.35;10.68;;;9.70;99.90;;;;;;7379114;19;20569;-64
2024/03/20 01:52:00;;;;;;;14.38;9.63;;;9.70;99.90;;;;;;7377452;19;20018;-64
2024/03/20 01:54:27;;;;;;;16.15;10.93;;;9.80;99.90;;;;;;7373221;19;20019;-66
2024/03/20 01:56:54;;;;;;;14.35;10.23;;;9.70;99.90;;;;;;7364323;19;20014;-67
2024/03/20 01:59:23;;;;;;;18.75;10.68;;;9.80;99.90;;;;;;7374106;19;20378;-69
2024/03/20 02:01:49;;;;;;;14.55;11.32;;;9.80;99.90;;;;;;7373282;19;20676;-66
2024/03/20 02:04:15;;;;;;;16.58;10.63;;;9.80;99.90;;;;;;7373428;19;20090;-67
2024/03/20 02:06:41;;;;;;;14.07;10.48;;;9.80;99.90;;;;;;7368866;19;20608;-66
2024/03/20 02:09:08;;;;;;;16.05;11.23;;;9.80;99.90;;;;;;7374821;19;20632;-67
2024/03/20 02:11:35;;;;;;;16.00;11.30;;;9.80;99.90;;;;;;7369540;19;20778;-69
2024/03/20 02:14:02;;;;;;;11.93;9.98;;;9.80;99.90;;;;;;7373991;19;20868;-67
2024/03/20 02:16:28;;;;;;;17.90;11.55;;;9.70;99.90;;;;;;7366524;19;21147;-67
2024/03/20 02:18:56;;;;;;;16.33;11.07;;;9.80;99.90;;;;;;7360417;19;21232;-65
2024/03/20 02:21:23;;;;;;;13.15;11.27;;;9.80;99.90;;;;;;7366566;19;20089;-65
2024/03/20 02:23:51;;;;;;;12.85;10.25;;;9.80;99.90;;;;;;7364820;19;20033;-67
2024/03/20 02:26:17;;;;;;;14.93;10.73;;;9.90;99.90;;;;;;7368861;19;20018;-68
2024/03/20 02:28:45;;;;;;;19.75;11.75;;;9.80;99.90;;;;;;7368097;19;20014;-65
2024/03/20 02:31:12;;;;;;;16.25;11.52;;;9.80;99.90;;;;;;7368620;19;20507;-67
2024/03/20 02:33:39;;;;;;;15.60;10.52;;;9.80;99.90;;;;;;7364989;19;20018;-67
2024/03/20 02:36:06;;;;;;;19.30;11.65;;;9.70;99.90;;;;;;7364488;19;20014;-67
2024/03/20 02:38:35;;;;;;;14.63;11.18;;;9.70;99.90;;;;;;7366821;19;20793;-67
2024/03/20 02:41:01;;;;;;;16.05;12.00;;;9.60;99.90;;;;;;7367411;19;20041;-68
2024/03/20 02:43:28;;;;;;;19.35;12.77;;;9.60;99.90;;;;;;7365489;19;20014;-67
2024/03/20 02:45:56;;;;;;;17.52;12.68;;;9.60;99.90;;;;;;7363365;19;20026;-67
2024/03/20 02:48:22;;;;;;;16.15;12.48;;;9.50;99.90;;;;;;7364299;19;20026;-67
2024/03/20 02:50:50;;;;;;;17.77;13.07;;;9.50;99.90;;;;;;7364623;19;20021;-67
2024/03/20 02:53:16;;;;;;;18.83;12.60;;;9.40;99.90;;;;;;7364760;19;20028;-67
2024/03/20 02:55:44;;;;;;;17.73;12.98;;;9.30;99.90;;;;;;7359144;19;20047;-65
2024/03/20 02:58:12;;;;;;;19.27;13.02;;;9.30;99.90;;;;;;7373214;19;20011;-64
2024/03/20 03:00:38;;;;;;;13.52;12.13;;;9.30;99.90;;;;;;7373878;19;20021;-65
2024/03/20 03:03:04;;;;;;;13.75;11.90;;;9.30;99.90;;;;;;7366072;19;20027;-65
2024/03/20 03:05:34;;;;;;;18.23;12.85;;;9.30;99.90;;;;;;7364345;19;20082;-67
2024/03/20 03:08:00;;;;;;;15.60;11.88;;;9.30;99.90;;;;;;7363237;19;20642;-66
2024/03/20 03:10:27;;;;;;;14.77;11.98;;;9.30;99.90;;;;;;7369481;19;20024;-65
2024/03/20 03:12:54;;;;;;;19.38;12.32;;;9.30;99.90;;;;;;7367762;19;20018;-65
2024/03/20 03:15:21;;;;;;;14.65;11.02;;;9.30;99.90;;;;;;7367338;19;20675;-67
2024/03/20 03:17:54;;;;;;;17.50;12.82;;;9.30;99.90;;;;;;7360042;19;20021;-65
2024/03/20 03:20:26;;;;;;;17.25;11.88;;;9.30;99.90;;;;;;7371731;19;20035;-65
2024/03/20 03:22:52;;;;;;;17.98;12.60;;;9.30;99.90;;;;;;7369288;19;20026;-67
2024/03/20 03:25:19;;;;;;;13.55;11.85;;;9.30;99.90;;;;;;7370186;19;20486;-65
2024/03/20 03:27:45;;;;;;;19.05;12.20;;;9.30;99.90;;;;;;7352386;19;20022;-67
2024/03/20 03:30:11;;;;;;;17.13;12.57;;;9.30;99.90;;;;;;7363681;19;20902;-67
2024/03/20 03:32:39;;;;;;;15.77;11.88;;;9.30;99.90;;;;;;7362331;19;20010;-67
2024/03/20 03:35:06;;;;;;;15.02;11.27;;;9.30;99.90;;;;;;7362872;19;20021;-69
2024/03/20 03:37:33;;;;;;;16.75;12.18;;;9.30;99.90;;;;;;7364375;19;20025;-67
2024/03/20 03:40:00;;;;;;;21.80;12.30;;;9.30;99.90;;;;;;7362904;19;20019;-67
2024/03/20 03:42:29;;;;;;;17.35;12.18;;;9.20;99.90;;;;;;7361334;19;20019;-65
2024/03/20 03:44:55;;;;;;;18.90;12.70;;;9.20;99.90;;;;;;7361970;19;20029;-66
2024/03/20 03:47:21;;;;;;;16.70;12.25;;;9.20;99.90;;;;;;7363560;19;20466;-66
2024/03/20 03:49:48;;;;;;;14.98;12.50;;;9.20;99.90;;;;;;7361950;19;20054;-66
2024/03/20 03:52:15;;;;;;;16.63;11.73;;;9.20;99.90;;;;;;7362053;19;20114;-66
2024/03/20 03:54:41;;;;;;;16.13;12.35;;;9.10;99.90;;;;;;7366817;19;20046;-64
2024/03/20 03:57:07;;;;;;;18.08;12.65;;;9.10;99.90;;;;;;7374523;19;20033;-66
2024/03/20 03:59:34;;;;;;;15.38;12.15;;;9.10;99.90;;;;;;7371642;19;20059;-64
2024/03/20 04:02:00;;;;;;;13.63;11.52;;;9.10;99.90;;;;;;7374444;19;20018;-66
2024/03/20 04:04:26;;;;;;;16.02;11.20;;;9.20;99.90;;;;;;7370636;19;20010;-67
2024/03/20 04:06:53;;;;;;;15.70;12.05;;;9.20;99.90;;;;;;7365358;19;20437;-66
2024/03/20 04:09:20;;;;;;;15.20;12.65;;;9.20;99.90;;;;;;7370390;19;20028;-65
2024/03/20 04:11:46;;;;;;;16.70;11.70;;;9.20;99.90;;;;;;7368193;19;20036;-64
2024/03/20 04:14:15;;;;;;;16.70;12.00;;;9.20;99.90;;;;;;7367539;19;20018;-65
2024/03/20 04:16:42;;;;;;;16.52;12.15;;;9.20;99.90;;;;;;7364889;19;20640;-66
2024/03/20 04:19:08;;;;;;;17.13;12.48;;;9.20;99.90;;;;;;7364885;19;20831;-66
2024/03/20 04:21:34;;;;;;;13.95;11.82;;;9.20;99.90;;;;;;7359399;19;20023;-66
2024/03/20 04:24:00;;;;;;;13.98;12.25;;;9.20;99.90;;;;;;7366831;19;20026;-66
2024/03/20 04:26:26;;;;;;;17.80;11.95;;;9.20;99.90;;;;;;7362924;19;20096;-66
2024/03/20 04:28:53;;;;;;;14.15;11.70;;;9.20;99.90;;;;;;7366249;19;20012;-67
2024/03/20 04:31:19;;;;;;;15.90;13.02;;;9.20;99.90;;;;;;7363284;19;20018;-67
2024/03/20 04:33:45;;;;;;;15.32;12.45;;;9.20;99.90;;;;;;7366099;19;20022;-66
2024/03/20 04:36:12;;;;;;;18.48;12.57;;;9.20;99.90;;;;;;7363152;19;20022;-67
2024/03/20 04:38:39;;;;;;;17.95;12.98;;;9.20;99.90;;;;;;7365783;19;20022;-67
2024/03/20 04:41:08;;;;;;;15.63;11.23;;;9.20;99.90;;;;;;7365070;19;20085;-67
2024/03/20 04:43:34;;;;;;;17.17;12.38;;;9.30;99.90;;;;;;7360718;19;20025;-68
2024/03/20 04:46:01;;;;;;;17.55;12.00;;;9.30;99.90;;;;;;7365165;19;20126;-67
2024/03/20 04:48:27;;;;;;;15.35;12.30;;;9.30;99.90;;;;;;7366312;19;20054;-67
2024/03/20 04:50:53;;;;;;;17.20;12.32;;;9.20;99.90;;;;;;7375631;19;20025;-65
2024/03/20 04:53:20;;;;;;;18.90;13.30;;;9.20;99.90;;;;;;7375822;19;20650;-65
2024/03/20 04:55:47;;;;;;;17.77;12.18;;;9.30;99.90;;;;;;7379064;19;20041;-66
2024/03/20 04:58:13;;;;;;;20.33;12.45;;;9.20;99.90;;;;;;7376215;19;20015;-65
2024/03/20 05:00:39;;;;;;;15.85;12.50;;;9.30;99.90;;;;;;7373823;19;20018;-65
2024/03/20 05:03:06;;;;;;;17.15;12.07;;;9.30;99.90;;;;;;7374434;19;20022;-65
2024/03/20 05:05:32;;;;;;;17.80;12.70;;;9.20;99.90;;;;;;7369260;19;20462;-64
2024/03/20 05:07:59;;;;;;;16.45;11.88;;;9.20;99.90;;;;;;7374439;19;20524;-65
2024/03/20 05:10:27;;;;;;;15.98;11.52;;;9.30;99.90;;;;;;7370102;19;20614;-65
2024/03/20 05:12:54;;;;;;;15.68;11.43;;;9.20;99.90;;;;;;7375789;19;20630;-65
2024/03/20 05:15:21;;;;;;;14.27;11.90;;;9.20;99.90;;;;;;7372083;19;20026;-65
2024/03/20 05:17:47;;;;;;;13.27;10.93;;;9.10;99.90;;;;;;7375764;19;20512;-65
2024/03/20 05:20:15;;;;;;;17.83;12.77;;;9.10;99.90;;;;;;7374351;19;20025;-65
2024/03/20 05:22:41;;;;;;;14.43;11.90;;;9.10;99.90;;;;;;7380103;19;20026;-65
2024/03/20 05:25:07;;;;;;;15.50;12.75;;;9.00;99.90;;;;;;7380750;19;20078;-64
2024/03/20 05:27:34;;;;;;;14.18;11.38;;;9.00;99.90;;;;;;7378764;19;20015;-65
2024/03/20 05:30:00;;;;;;;16.35;11.65;;;9.00;99.90;;;;;;7383695;19;20061;-64
2024/03/20 05:32:26;;;;;;;15.55;11.95;;;9.00;99.90;;;;;;7379239;19;20026;-65
2024/03/20 05:34:52;;;;;;;19.17;12.73;;;9.00;99.90;;;;;;7380151;19;20059;-65
2024/03/20 05:37:18;;;;;;;14.85;11.77;;;9.00;99.90;;;;;;7379635;19;20041;-68
2024/03/20 05:39:45;;;;;;;16.13;12.60;;;9.00;99.90;;;;;;7375050;19;20486;-65
2024/03/20 05:42:11;;;;;;;15.77;13.10;;;8.90;99.90;;;;;;7380479;19;20018;-64
2024/03/20 05:44:37;;;;;;;15.02;12.30;;;8.90;99.90;;;;;;7382442;19;20725;-65
2024/03/20 05:47:04;;;;;;;15.80;12.45;;;8.80;99.90;;;;;;7376302;19;20026;-66
2024/03/20 05:49:30;;;;;;;19.35;13.48;;;8.80;99.90;;;;;;7371545;19;20024;-66
2024/03/20 05:51:56;;;;;;;15.18;11.65;;;8.70;99.90;;;;;;7378156;19;20022;-67
2024/03/20 05:54:23;;;;;;;15.30;12.38;;;8.70;99.90;;;;;;7372153;19;20029;-66
2024/03/20 05:56:49;;;;;;;17.48;13.05;;;8.70;99.90;;;;;;7370921;19;20018;-65
2024/03/20 05:59:16;;;;;;;20.55;13.57;;;8.60;99.90;;;;;;7378851;19;20376;-65
2024/03/20 06:01:42;;;;;;;17.52;13.50;;;8.70;99.90;;;;;;7383533;19;20043;-65
2024/03/20 06:04:09;;;;;;;20.30;14.10;;;8.70;99.90;;;;;;7381567;19;20494;-66
2024/03/20 06:06:35;;;;;;;23.45;14.43;;;8.80;99.90;;;;;;7376441;19;20014;-67
2024/03/20 06:09:01;;;;;;;17.75;12.93;;;8.90;99.90;;;;;;7371819;19;20021;-67
2024/03/20 06:11:27;;;;;;;21.73;14.52;;;9.00;99.90;;;;;;7369336;19;20019;-67
2024/03/20 06:13:53;;;;;;;18.05;13.77;;;9.00;99.90;;;;;;7374400;19;20349;-65
2024/03/20 06:16:20;;;;;;;17.55;13.27;;;9.10;99.90;;;;;;7375516;19;20395;-67
2024/03/20 06:18:46;;;;;;;20.85;13.82;;;9.20;99.90;;;;;;7378725;19;20125;-66
2024/03/20 06:21:14;;;;;;;18.85;13.82;;;9.30;99.90;;;;;;7375160;19;20018;-65
2024/03/20 06:23:41;;;;;;;17.80;13.60;;;9.40;99.90;;;;;;7380035;19;20018;-65
2024/03/20 06:26:07;;;;;;;18.83;13.93;;;9.50;99.90;;;;;;7374781;19;20022;-65
2024/03/20 06:28:34;;;;;;;15.40;11.77;;;9.60;99.90;;;;;;7378399;19;20033;-65
2024/03/20 06:31:00;;;;;;;20.25;13.32;;;9.70;99.90;;;;;;7375643;19;20018;-65
2024/03/20 06:33:26;;;;;;;18.88;13.20;;;9.80;99.90;;;;;;7377258;19;20018;-66
2024/03/20 06:35:53;;;;;;;18.00;13.35;;;9.90;99.90;;;;;;7376861;19;20088;-66
2024/03/20 06:38:19;;;;;;;17.83;12.85;;;9.90;99.90;;;;;;7375857;19;20015;-68
2024/03/20 06:40:45;;;;;;;20.88;13.02;;;9.90;99.90;;;;;;7375398;19;20045;-67
2024/03/20 06:43:13;;;;;;;16.55;13.07;;;10.00;99.90;;;;;;7377271;19;20022;-66
2024/03/20 06:45:47;;;;;;;17.27;12.95;;;10.00;99.90;;;;;;7374538;19;20105;-65
2024/03/20 06:48:21;;;;;;;18.98;12.95;;;10.10;99.90;;;;;;7374503;19;20022;-66
2024/03/20 06:50:48;;;;;;;19.02;13.43;;;10.10;99.90;;;;;;7372776;19;20029;-64
2024/03/20 06:53:18;;;;;;;18.02;13.63;;;10.20;99.90;;;;;;7377382;19;20040;-63
2024/03/20 06:55:48;;;;;;;18.88;13.50;;;10.30;99.90;;;;;;7376460;19;20034;-65
2024/03/20 06:58:14;;;;;;;17.77;12.30;;;10.30;99.90;;;;;;7376839;19;20015;-64
2024/03/20 07:00:46;;;;;;;21.08;13.35;;;10.40;99.90;;;;;;7373328;19;20022;-64
2024/03/20 07:03:16;;;;;;;;;;;10.50;99.90;;;;;;7377312;19;20029;-65
2024/03/20 07:05:45;;;;;;;16.67;13.15;;;10.60;99.90;;;;;;7373262;19;20328;-65
2024/03/20 07:08:11;;;;;;;16.60;12.85;;;10.70;99.90;;;;;;7375331;19;20533;-65
2024/03/20 07:10:38;;;;;;;17.27;13.20;;;10.80;99.90;;;;;;7375089;19;20028;-67
2024/03/20 07:13:06;;;;;;;19.15;12.40;;;10.90;99.90;;;;;;7377496;19;20019;-65
2024/03/20 07:15:32;;;;;;;20.10;11.85;;;10.90;99.90;;;;;;7374710;19;20493;-64
2024/03/20 07:17:59;;;;;;;18.65;12.77;;;11.00;99.90;;;;;;7374776;19;20019;-64
2024/03/20 07:20:26;;;;;;;14.90;11.00;;;11.10;99.90;;;;;;7376035;19;20368;-64
2024/03/20 07:22:52;;;;;;;15.23;11.07;;;11.10;99.90;;;;;;7382109;19;20021;-65
2024/03/20 07:25:19;;;;;;;18.75;11.90;;;11.10;99.90;;;;;;7376846;19;20011;-65
2024/03/20 07:27:46;;;;;;;16.88;10.65;;;11.20;99.90;;;;;;7379192;19;20391;-64
2024/03/20 07:30:12;;;;;;;19.05;11.10;;;11.20;99.90;;;;;;7372396;19;20018;-65
2024/03/20 07:32:40;;;;;;;16.95;10.55;;;11.40;99.90;;;;;;7373147;19;20022;-65
2024/03/20 07:35:06;;;;;;;13.60;10.38;;;11.40;99.90;;;;;;7372432;19;20074;-65
2024/03/20 07:37:32;;;;;;;16.83;10.40;;;11.50;99.90;;;;;;7374204;19;20014;-65
2024/03/20 07:39:59;;;;;;;14.50;10.23;;;11.60;99.90;;;;;;7376400;19;20026;-65
2024/03/20 07:42:25;;;;;;;15.50;10.65;;;11.70;99.90;;;;;;7377039;19;20126;-65
2024/03/20 07:44:52;;;;;;;16.23;10.23;;;11.80;99.90;;;;;;7376879;19;20037;-65
2024/03/20 07:47:18;;;;;;;17.17;10.35;;;11.90;99.90;;;;;;7368983;19;20027;-62
2024/03/20 07:49:45;;;;;;;21.08;10.60;;;12.00;99.90;;;;;;7368301;19;20031;-64
2024/03/20 07:52:12;;;;;;;15.40;10.18;;;12.00;99.90;;;;;;7373803;19;20057;-65
2024/03/20 07:54:38;;;;;;;13.73;9.85;;;12.00;99.90;;;;;;7375644;19;20090;-64
2024/03/20 07:57:05;;;;;;;15.95;9.45;;;12.10;99.90;;;;;;7380876;19;20070;-65
2024/03/20 07:59:31;;;;;;;14.18;8.93;;;12.10;99.90;;;;;;7379394;19;20021;-64
2024/03/20 08:01:57;;;;;;;16.33;9.05;;;12.10;99.90;;;;;;7378264;19;20019;-64
2024/03/20 08:04:24;;;;;;;13.18;9.73;;;12.30;99.90;;;;;;7379203;19;20027;-64
2024/03/20 08:06:52;;;;;;;14.70;9.48;;;12.40;99.90;;;;;;7379206;19;20018;-64
2024/03/20 08:09:19;;;;;;;13.20;8.80;;;12.60;99.90;;;;;;7377807;19;20019;-63
2024/03/20 08:11:45;;;;;;;15.82;8.80;;;12.90;99.90;;;;;;7377533;19;20011;-62
2024/03/20 08:14:13;;;;;;;12.27;7.40;;;13.10;99.90;;;;;;7383163;19;20683;-64
2024/03/20 08:16:40;;;;;;;12.65;7.70;;;13.20;99.90;;;;;;7375895;19;20098;-64
2024/03/20 08:19:06;;;;;;;13.43;7.95;;;13.30;99.90;;;;;;7380960;19;20022;-65
2024/03/20 08:21:33;;;;;;;11.98;7.90;;;13.30;99.90;;;;;;7375551;19;20042;-65
2024/03/20 08:24:04;;;;;;;16.30;8.82;;;13.30;99.90;;;;;;7383971;19;20490;-64
2024/03/20 08:26:31;;;;;;;14.55;7.85;;;13.40;99.90;;;;;;7378816;19;20065;-64
2024/03/20 08:28:57;;;;;;;12.45;7.57;;;13.60;99.90;;;;;;7379869;19;20086;-64
2024/03/20 08:31:23;;;;;;;11.93;7.15;;;13.90;99.90;;;;;;7381426;19;20047;-64
2024/03/20 08:33:50;;;;;;;15.60;8.02;;;14.00;99.90;;;;;;7381352;19;20380;-64
2024/03/20 08:36:16;;;;;;;13.32;6.45;;;14.40;99.90;;;;;;7380644;19;20014;-64
2024/03/20 08:38:45;;;;;;;11.68;5.97;;;14.70;99.90;;;;;;7378123;19;20058;-64
2024/03/20 08:41:13;;;;;;;15.77;7.25;;;15.30;99.90;;;;;;7379748;19;20530;-64
2024/03/20 08:43:40;;;;;;;13.38;7.07;;;15.50;99.90;;;;;;7380935;19;20017;-66
2024/03/20 08:46:08;;;;;;;15.82;6.43;;;15.70;99.90;;;;;;7374365;19;20451;-64
2024/03/20 08:48:35;;;;;;;11.70;6.70;;;15.80;99.90;;;;;;7378866;19;20590;-66
2024/03/20 08:51:02;;;;;;;13.02;6.68;;;15.90;99.90;;;;;;7377419;19;20043;-64
2024/03/20 08:53:30;;;;;;;11.40;6.43;;;15.80;99.90;;;;;;7378153;19;20022;-65
2024/03/20 08:55:57;;;;;;;11.95;6.90;;;15.70;99.90;;;;;;7379779;19;20791;-65
2024/03/20 08:58:24;;;;;;;16.80;6.68;;;15.70;99.90;;;;;;7381497;19;20047;-66
2024/03/20 09:00:51;;;;;;;15.50;7.85;;;15.70;99.90;;;;;;7375780;19;20769;-67
2024/03/20 09:03:17;;;;;;;11.93;7.72;;;15.70;99.90;;;;;;7377732;19;20628;-66
2024/03/20 09:05:43;;;;;;;13.65;8.15;;;15.80;99.90;;;;;;7374906;19;20026;-65
2024/03/20 09:08:10;;;;;;;15.10;7.55;;;15.90;99.90;;;;;;7378325;19;20018;-64
2024/03/20 09:10:36;;;;;;;16.27;8.07;;;15.80;99.90;;;;;;7370319;19;20133;-65
2024/03/20 09:13:03;;;;;;;17.55;8.60;;;15.70;99.90;;;;;;7375461;19;20053;-64
2024/03/20 09:15:29;;;;;;;12.57;8.00;;;15.70;99.90;;;;;;7375002;19;20022;-65
2024/03/20 09:17:56;;;;;;;13.18;7.20;;;15.80;99.90;;;;;;7373626;19;20055;-64
2024/03/20 09:20:25;;;;;;;13.20;7.75;;;15.70;99.90;;;;;;7372481;19;20025;-65
2024/03/20 09:22:55;;;;;;;12.82;7.07;;;16.00;99.90;;;;;;7374421;19;20034;-64
2024/03/20 09:25:21;;;;;;;14.27;7.45;;;16.30;99.90;;;;;;7372298;19;20022;-64
2024/03/20 09:27:48;;;;;;;14.52;7.78;;;16.40;99.90;;;;;;7368723;19;20502;-64
2024/03/20 09:30:15;;;;;;;14.93;7.00;;;16.50;99.90;;;;;;7377924;19;20037;-65
2024/03/20 09:32:45;;;;;;;11.65;6.40;;;16.40;99.90;;;;;;7374835;19;20836;-64
2024/03/20 09:35:13;;;;;;;14.73;7.40;;;16.40;99.90;;;;;;7370647;19;20015;-63
2024/03/20 09:37:39;;;;;;;10.32;6.35;;;16.60;99.90;;;;;;7373582;19;20113;-64
2024/03/20 09:40:12;;;;;;;10.13;6.85;;;16.40;99.90;;;;;;7372283;19;20023;-65
2024/03/20 09:42:39;;;;;;;16.05;7.40;;;16.50;99.90;;;;;;7376583;19;20029;-64
2024/03/20 09:45:08;;;;;;;12.38;6.82;;;16.60;99.90;;;;;;7379301;19;20861;-65
2024/03/20 09:47:35;;;;;;;11.05;6.78;;;16.50;99.90;;;;;;7374184;19;20031;-64
2024/03/20 09:50:02;;;;;;;11.18;6.80;;;16.70;99.90;;;;;;7375847;19;20033;-65
2024/03/20 09:52:29;;;;;;;14.32;7.45;;;16.80;99.90;;;;;;7378348;19;20015;-64
2024/03/20 09:54:57;;;;;;;17.70;6.97;;;17.10;99.90;;;;;;7379646;19;20022;-64
2024/03/20 09:57:26;;;;;;;11.55;6.85;;;17.20;99.90;;;;;;7376131;19;20057;-64
2024/03/20 09:59:54;;;;;;;15.20;8.20;;;17.10;99.90;;;;;;7379980;19;20019;-64
2024/03/20 10:02:23;;;;;;;10.48;6.82;;;17.20;99.90;;;;;;7368637;19;20022;-63
2024/03/20 10:04:52;;;;;;;15.63;7.20;;;17.20;99.90;;;;;;7367701;19;20071;-65
2024/03/20 10:07:18;;;;;;;13.45;7.93;;;17.20;99.90;;;;;;7369704;19;20026;-64
2024/03/20 10:09:45;;;;;;;12.50;7.20;;;17.40;99.90;;;;;;7370399;19;20015;-62
2024/03/20 10:12:16;;;;;;;14.93;7.78;;;17.30;99.90;;;;;;7369429;19;20030;-57
2024/03/20 10:14:43;;;;;;;12.73;7.65;;;17.60;99.90;;;;;;7365464;19;20025;-58
2024/03/20 10:17:16;;;;;;;16.20;8.82;;;17.80;99.90;;;;;;7363045;19;20018;-57
2024/03/20 10:19:43;;;;;;;15.82;10.40;;;17.90;99.90;;;;;;7366168;19;20059;-62
2024/03/20 10:22:11;;;;;;;13.52;8.15;;;17.40;99.90;;;;;;7379252;19;20015;-59
2024/03/20 10:24:38;;;;;;;14.10;8.05;;;17.60;99.90;;;;;;7378860;19;20021;-60
2024/03/20 10:27:05;;;;;;;15.48;7.78;;;17.70;99.90;;;;;;7377679;19;20744;-60
2024/03/20 10:29:35;;;;;;;12.85;7.13;;;17.70;99.90;;;;;;7382712;19;20391;-60
2024/03/20 10:32:03;;;;;;;17.60;12.85;;;17.80;99.90;;;;;;7389692;19;20465;-60
2024/03/20 10:34:30;;;;;;;14.18;7.70;;;17.90;99.90;;;;;;7380043;19;20022;-60
2024/03/20 10:36:56;;;;;;;11.50;7.70;;;17.80;99.90;;;;;;7382876;19;20014;-61
2024/03/20 10:39:24;;;;;;;14.88;10.32;;;18.20;99.90;;;;;;7381423;19;20014;-61
2024/03/20 10:41:52;;;;;;;9.95;6.57;;;18.50;99.90;;;;;;7384196;19;20366;-61
2024/03/20 10:44:20;;;;;;;15.70;7.63;;;18.70;99.90;;;;;;7380420;19;20019;-61
2024/03/20 10:46:50;;;;;;;14.73;7.68;;;19.10;99.90;;;;;;7382088;19;20018;-61
2024/03/20 10:49:24;;;;;;;12.15;8.75;;;19.00;99.90;;;;;;7380859;19;20024;-61
2024/03/20 10:51:52;;;;;;;56.50;48.67;;;19.10;99.90;;;;;;7379102;19;20059;-61
2024/03/20 10:54:19;;;;;;;16.10;10.43;;;19.40;99.90;;;;;;7381111;19;20019;-61
2024/03/20 10:56:50;;;;;;;22.45;16.33;;;19.40;99.90;;;;;;7383039;19;20033;-61
2024/03/20 10:59:19;;;;;;;24.90;18.58;;;19.30;99.90;;;;;;7363922;19;20010;-57
2024/03/20 11:02:05;;;;;;;14.18;10.15;;;19.20;99.90;;;;;;7368552;19;20500;-57
2024/03/20 11:04:42;;;;;;;13.85;10.02;;;19.20;99.90;;;;;;7365873;19;20019;-57
2024/03/20 11:07:24;;;;;;;27.13;19.15;;;19.30;99.90;;;;;;7371517;19;21126;-58
2024/03/20 11:09:51;;;;;;;20.27;15.70;;;19.50;99.90;;;;;;7369517;19;20035;-57
2024/03/20 11:12:28;;;;;;;15.10;11.13;;;19.30;99.90;;;;;;7373989;19;20014;-58
2024/03/20 11:15:02;;;;;;;14.25;11.88;;;19.20;99.90;;;;;;7368176;19;20109;-57
2024/03/20 11:17:33;;;;;;;20.48;13.20;;;19.30;99.90;;;;;;7384537;19;20023;-60
2024/03/20 11:20:00;;;;;;;17.45;11.50;;;18.90;99.90;;;;;;7379281;19;20010;-60
2024/03/20 11:22:27;;;;;;;20.88;11.55;;;18.90;99.90;;;;;;7379754;19;20014;-60
2024/03/20 11:24:54;;;;;;;30.73;22.50;;;18.80;99.90;;;;;;7377487;19;20029;-60
2024/03/20 11:27:24;;;;;;;49.67;42.42;;;18.80;99.90;;;;;;7378646;19;20029;-60
2024/03/20 11:29:51;;;;;;;24.50;18.67;;;18.80;99.90;;;;;;7374798;19;20018;-60
2024/03/20 11:32:23;;;;;;;41.95;33.60;;;19.00;99.90;;;;;;7381636;19;20018;-60
2024/03/20 11:34:49;;;;;;;;;;;18.90;99.90;;;;;;7381826;19;20026;-60
2024/03/20 11:37:18;;;;;;;39.22;32.22;;;18.50;99.90;;;;;;7372638;19;19922;-56
2024/03/20 11:39:46;;;;;;;30.27;24.95;;;18.50;99.90;;;;;;7348952;19;20053;-58
2024/03/20 11:42:16;;;;;;;23.20;15.05;;;18.60;99.90;;;;;;7357687;19;20019;-58
2024/03/20 11:44:42;;;;;;;19.70;14.95;;;18.70;99.90;;;;;;7354155;19;20022;-58
2024/03/20 11:47:15;;;;;;;14.98;12.63;;;18.60;99.90;;;;;;7354093;19;20643;-60
2024/03/20 11:49:50;;;;;;;101.55;91.13;;;18.60;99.90;;;;;;7356802;19;20035;-61
2024/03/20 11:52:17;;;;;;;20.90;16.42;;;18.80;99.90;;;;;;7363404;19;20011;-60
2024/03/20 11:54:47;;;;;;;19.65;14.20;;;18.60;99.90;;;;;;7359267;19;20038;-62
2024/03/20 11:57:15;;;;;;;23.80;16.70;;;18.70;99.90;;;;;;7365338;19;20369;-62
2024/03/20 11:59:52;;;;;;;21.23;16.60;;;18.90;99.90;;;;;;7360386;19;20018;-63
2024/03/20 12:02:23;;;;;;;20.55;16.55;;;18.80;99.90;;;;;;7346526;19;20030;-59
2024/03/20 12:04:49;;;;;;;20.77;15.70;;;18.50;99.90;;;;;;7349627;19;20019;-58
2024/03/20 12:07:25;;;;;;;19.65;15.25;;;18.60;99.90;;;;;;7347890;19;20027;-60
2024/03/20 12:09:52;;;;;;;22.70;17.73;;;18.60;99.90;;;;;;7349080;19;20011;-60
2024/03/20 12:12:24;;;;;;;22.92;19.58;;;18.90;99.90;;;;;;7351569;19;21052;-58
2024/03/20 12:14:59;;;;;;;22.02;16.60;;;19.40;99.90;;;;;;7352947;19;20023;-59
2024/03/20 12:17:26;;;;;;;27.25;23.88;;;20.10;99.90;;;;;;7344120;19;20022;-58
2024/03/20 12:19:53;;;;;;;28.88;23.23;;;20.50;99.90;;;;;;7350457;19;21292;-59
2024/03/20 12:22:21;;;;;;;20.95;14.88;;;20.90;99.90;;;;;;7349169;19;20022;-60
2024/03/20 12:24:48;;;;;;;23.83;17.42;;;20.60;99.20;;;;;;7352482;19;20748;-60
2024/03/20 12:27:14;;;;;;;19.67;15.15;;;20.50;99.90;;;;;;7346293;19;20022;-58
2024/03/20 12:29:44;;;;;;;18.52;14.55;;;20.50;99.90;;;;;;7350106;19;20792;-59
2024/03/20 12:32:12;;;;;;;19.42;13.57;;;20.70;99.90;;;;;;7348771;19;20028;-59
2024/03/20 12:34:39;;;;;;;20.52;15.13;;;20.40;99.10;;;;;;7351965;19;21931;-59
2024/03/20 12:37:08;;;;;;;15.10;13.23;;;20.20;99.90;;;;;;7353013;19;20019;-59